Monday, October 16, 2017, 7:34 PM CDT
Back to Local

KDDC, Dodge City Regional Airport

Location: Dodge City, KS, United States Lat: 37.767
Local Time: 7:34 PM CDT ( 0:34 GMT) Lon: -99.967
Time Zone: US/Central Elev: 2595 ft

Show me the last for .
Show Decoded

2017-10-16 18:52 METAR KDDC 162352Z AUTO 18010KT 10SM CLR 19/M01 A3018 RMK AO2 SLP216 T01891011
                 10233 20189 56012 =
2017-10-16 17:52 METAR KDDC 162252Z AUTO 19017G23KT 10SM CLR 22/M01 A3019 RMK AO2 PK WND
                 18026/2235 SLP216 T02171006 =
2017-10-16 16:52 METAR KDDC 162152Z AUTO 19018G26KT 10SM CLR 23/M02 A3020 RMK AO2 PK WND
                 18028/2102 SLP219 T02281022 =
2017-10-16 15:52 METAR KDDC 162052Z AUTO 19018G25KT 10SM CLR 23/M03 A3022 RMK AO2 PK WND
                 21027/2012 SLP223 T02281028 56036 =
2017-10-16 14:52 METAR KDDC 161952Z AUTO 19017KT 10SM CLR 22/M02 A3025 RMK AO2 PK WND 20027/1937
                 SLP236 T02221022 =
2017-10-16 13:52 METAR KDDC 161852Z AUTO 19023G28KT 10SM CLR 23/M03 A3029 RMK AO2 PK WND
                 19030/1804 SLP247 T02281028 =
2017-10-16 12:52 METAR KDDC 161752Z AUTO 20019KT 10SM CLR 21/M02 A3034 RMK AO2 PK WND 20026/1732
                 SLP264 60000 T02111022 10211 20022 58020 =
2017-10-16 11:52 METAR KDDC 161652Z AUTO 20016KT 10SM CLR 19/00 A3037 RMK AO2 RAE09 SLP275 P0000
                 T01890000 =
2017-10-16 10:52 METAR KDDC 161552Z AUTO 22016KT 10SM -RA CLR 16/00 A3039 RMK AO2 RAB48 SLP283
                 P0000 T01610000 =
2017-10-16 09:52 METAR KDDC 161452Z AUTO 21012KT 7SM CLR 13/01 A3040 RMK AO2 SLP291 T01330006
                 53002 =
2017-10-16 08:52 METAR KDDC 161352Z AUTO 21008KT 7SM CLR 09/01 A3040 RMK AO2 SLP294 T00890006 =
2017-10-16 07:52 METAR KDDC 161252Z AUTO 21005KT 7SM CLR 03/M01 A3039 RMK AO2 SLP299 T00331011 =
2017-10-16 06:52 METAR KDDC 161152Z AUTO 20007KT 8SM CLR 03/M01 A3039 RMK AO2 SLP293 T00331011
                 10061 20028 56003 =
2017-10-16 05:52 METAR KDDC 161052Z AUTO 20008KT 8SM CLR 03/M02 A3040 RMK AO2 SLP291 T00281017 =
2017-10-16 04:52 METAR KDDC 160952Z AUTO 20009KT 9SM CLR 04/M01 A3040 RMK AO2 SLP291 T00391011 =
2017-10-16 03:52 METAR KDDC 160852Z AUTO 20008KT 9SM CLR 05/M02 A3040 RMK AO2 SLP291 T00501017
                 58005 =
2017-10-16 02:52 METAR KDDC 160752Z AUTO 20007KT 8SM CLR 04/M01 A3042 RMK AO2 SLP296 T00441011 =
2017-10-16 01:52 METAR KDDC 160652Z AUTO 20007KT 8SM CLR 06/M01 A3042 RMK AO2 SLP297 T00561011 =
2017-10-16 00:52 METAR KDDC 160552Z AUTO 20007KT 8SM CLR 06/M01 A3042 RMK AO2 SLP299 T00561006
                 10144 20050 401830011 51001 =
2017-10-15 23:52 METAR KDDC 160452Z AUTO 21006KT 8SM CLR 06/00 A3042 RMK AO2 SLP301 T00610000 =
2017-10-15 22:52 METAR KDDC 160352Z AUTO 22005KT 8SM CLR 08/01 A3042 RMK AO2 SLP302 T00780006 =
2017-10-15 21:52 METAR KDDC 160252Z AUTO 22004KT 7SM CLR 09/00 A3042 RMK AO2 SLP301 T00890000
                 51005 =
2017-10-15 20:52 METAR KDDC 160152Z AUTO 24004KT 9SM CLR 10/M01 A3042 RMK AO2 SLP304 T01001006 =
2017-10-15 19:52 METAR KDDC 160052Z AUTO 26003KT 8SM CLR 08/00 A3041 RMK AO2 SLP307 T00780000 =

Support USWX by starting your Amazon purchase here.